sensor_id;sensor_type;location;lat;lon;timestamp;pressure;altitude;pressure_sealevel;temperature;humidity
56604;BME280;42486;47.478;19.036;2023-01-25T00:00:33;101812.53;;;-0.24;100.00
56604;BME280;42486;47.478;19.036;2023-01-25T00:03:37;101810.00;;;-0.29;100.00
56604;BME280;42486;47.478;19.036;2023-01-25T00:06:41;101817.66;;;-0.21;100.00
56604;BME280;42486;47.478;19.036;2023-01-25T00:09:44;101820.22;;;-0.19;100.00
56604;BME280;42486;47.478;19.036;2023-01-25T00:12:47;101829.63;;;-0.22;100.00
56604;BME280;42486;47.478;19.036;2023-01-25T00:15:53;101823.63;;;-0.19;100.00
56604;BME280;42486;47.478;19.036;2023-01-25T00:18:57;101829.63;;;-0.17;100.00
56604;BME280;42486;47.478;19.036;2023-01-25T00:22:06;101831.31;;;-0.13;100.00
56604;BME280;42486;47.478;19.036;2023-01-25T00:25:10;101834.69;;;-0.05;100.00
56604;BME280;42486;47.478;19.036;2023-01-25T00:28:13;101833.06;;;-0.18;100.00
56604;BME280;42486;47.478;19.036;2023-01-25T00:31:31;101842.50;;;-0.23;100.00
56604;BME280;42486;47.478;19.036;2023-01-25T00:34:46;101826.25;;;-0.30;100.00
56604;BME280;42486;47.478;19.036;2023-01-25T00:37:53;101827.16;;;-0.34;100.00
56604;BME280;42486;47.478;19.036;2023-01-25T00:41:04;101835.69;;;-0.32;100.00
56604;BME280;42486;47.478;19.036;2023-01-25T00:44:18;101829.69;;;-0.32;100.00
56604;BME280;42486;47.478;19.036;2023-01-25T00:47:24;101828.84;;;-0.33;100.00
56604;BME280;42486;47.478;19.036;2023-01-25T00:50:38;101833.13;;;-0.33;100.00
56604;BME280;42486;47.478;19.036;2023-01-25T00:53:42;101829.59;;;-0.12;100.00
56604;BME280;42486;47.478;19.036;2023-01-25T00:56:48;101824.44;;;-0.11;100.00
56604;BME280;42486;47.478;19.036;2023-01-25T00:59:56;101829.63;;;-0.15;100.00
56604;BME280;42486;47.478;19.036;2023-01-25T01:02:59;101830.41;;;-0.03;100.00
56604;BME280;42486;47.478;19.036;2023-01-25T01:06:11;101831.19;;;0.07;100.00
56604;BME280;42486;47.478;19.036;2023-01-25T01:09:17;101835.50;;;0.08;100.00
56604;BME280;42486;47.478;19.036;2023-01-25T01:12:27;101836.34;;;0.09;100.00
56604;BME280;42486;47.478;19.036;2023-01-25T01:15:36;101842.38;;;0.02;100.00
56604;BME280;42486;47.478;19.036;2023-01-25T01:18:43;101844.16;;;-0.10;100.00
56604;BME280;42486;47.478;19.036;2023-01-25T01:21:50;101850.19;;;-0.20;100.00
56604;BME280;42486;47.478;19.036;2023-01-25T01:24:56;101852.78;;;-0.28;100.00
56604;BME280;42486;47.478;19.036;2023-01-25T01:28:02;101849.41;;;-0.36;100.00
56604;BME280;42486;47.478;19.036;2023-01-25T01:31:12;101853.69;;;-0.39;100.00
56604;BME280;42486;47.478;19.036;2023-01-25T01:34:34;101856.28;;;-0.42;100.00
56604;BME280;42486;47.478;19.036;2023-01-25T01:37:41;101845.12;;;-0.40;100.00
56604;BME280;42486;47.478;19.036;2023-01-25T01:40:45;101852.84;;;-0.41;100.00
56604;BME280;42486;47.478;19.036;2023-01-25T01:43:48;101857.09;;;-0.37;100.00
56604;BME280;42486;47.478;19.036;2023-01-25T01:46:56;101851.16;;;-0.47;100.00
56604;BME280;42486;47.478;19.036;2023-01-25T01:50:22;101849.50;;;-0.56;100.00
56604;BME280;42486;47.478;19.036;2023-01-25T01:53:31;101847.78;;;-0.63;100.00
56604;BME280;42486;47.478;19.036;2023-01-25T02:00:24;101843.56;;;-0.76;100.00
56604;BME280;42486;47.478;19.036;2023-01-25T02:03:32;101845.25;;;-0.80;100.00
56604;BME280;42486;47.478;19.036;2023-01-25T02:06:52;101838.44;;;-0.84;100.00
56604;BME280;42486;47.478;19.036;2023-01-25T02:10:03;101829.87;;;-0.86;100.00
56604;BME280;42486;47.478;19.036;2023-01-25T02:13:09;101823.87;;;-0.80;100.00
56604;BME280;42486;47.478;19.036;2023-01-25T02:16:20;101823.03;;;-0.81;100.00
56604;BME280;42486;47.478;19.036;2023-01-25T02:19:51;101823.91;;;-0.86;100.00
56604;BME280;42486;47.478;19.036;2023-01-25T02:26:24;101824.78;;;-0.92;100.00
56604;BME280;42486;47.478;19.036;2023-01-25T02:29:32;101829.03;;;-0.86;100.00
56604;BME280;42486;47.478;19.036;2023-01-25T02:32:45;101827.31;;;-0.84;100.00
56604;BME280;42486;47.478;19.036;2023-01-25T02:36:21;101822.22;;;-0.97;100.00
56604;BME280;42486;47.478;19.036;2023-01-25T02:39:26;101817.94;;;-0.95;100.00
56604;BME280;42486;47.478;19.036;2023-01-25T02:42:30;101807.72;;;-1.01;100.00
56604;BME280;42486;47.478;19.036;2023-01-25T02:45:37;101801.72;;;-1.07;100.00
56604;BME280;42486;47.478;19.036;2023-01-25T02:48:40;101799.16;;;-1.07;100.00
56604;BME280;42486;47.478;19.036;2023-01-25T02:51:50;101795.75;;;-1.08;100.00
56604;BME280;42486;47.478;19.036;2023-01-25T02:55:02;101788.06;;;-1.08;100.00
56604;BME280;42486;47.478;19.036;2023-01-25T02:58:10;101788.88;;;-1.00;100.00
56604;BME280;42486;47.478;19.036;2023-01-25T03:01:23;101785.41;;;-0.88;100.00
56604;BME280;42486;47.478;19.036;2023-01-25T03:04:30;101787.13;;;-0.93;100.00
56604;BME280;42486;47.478;19.036;2023-01-25T03:07:35;101784.56;;;-0.93;100.00
56604;BME280;42486;47.478;19.036;2023-01-25T03:10:47;101785.47;;;-1.02;100.00
56604;BME280;42486;47.478;19.036;2023-01-25T03:13:50;101782.91;;;-1.06;100.00
56604;BME280;42486;47.478;19.036;2023-01-25T03:16:54;101776.91;;;-0.95;100.00
56604;BME280;42486;47.478;19.036;2023-01-25T03:19:57;101786.28;;;-0.84;100.00
56604;BME280;42486;47.478;19.036;2023-01-25T03:23:09;101781.09;;;-0.74;100.00
56604;BME280;42486;47.478;19.036;2023-01-25T03:26:21;101781.09;;;-0.72;100.00
56604;BME280;42486;47.478;19.036;2023-01-25T03:29:36;101775.94;;;-0.66;100.00
56604;BME280;42486;47.478;19.036;2023-01-25T03:32:40;101775.09;;;-0.63;100.00
56604;BME280;42486;47.478;19.036;2023-01-25T03:35:53;101774.22;;;-0.64;100.00
56604;BME280;42486;47.478;19.036;2023-01-25T03:39:03;101777.62;;;-0.59;100.00
56604;BME280;42486;47.478;19.036;2023-01-25T03:42:07;101775.87;;;-0.52;100.00
56604;BME280;42486;47.478;19.036;2023-01-25T03:45:11;101778.41;;;-0.43;100.00
56604;BME280;42486;47.478;19.036;2023-01-25T03:48:24;101782.66;;;-0.40;100.00
56604;BME280;42486;47.478;19.036;2023-01-25T03:51:29;101785.13;;;-0.22;100.00
56604;BME280;42486;47.478;19.036;2023-01-25T03:54:34;101773.03;;;-0.06;100.00
56604;BME280;42486;47.478;19.036;2023-01-25T03:57:40;101774.69;;;0.03;100.00
56604;BME280;42486;47.478;19.036;2023-01-25T04:00:47;101771.22;;;0.11;100.00
56604;BME280;42486;47.478;19.036;2023-01-25T04:03:54;101766.94;;;0.13;100.00
56604;BME280;42486;47.478;19.036;2023-01-25T04:06:57;101770.34;;;0.12;100.00
56604;BME280;42486;47.478;19.036;2023-01-25T04:10:00;101772.06;;;0.13;100.00
56604;BME280;42486;47.478;19.036;2023-01-25T04:13:05;101776.41;;;0.08;100.00
56604;BME280;42486;47.478;19.036;2023-01-25T04:16:12;101772.09;;;0.07;100.00
56604;BME280;42486;47.478;19.036;2023-01-25T04:19:23;101773.88;;;-0.01;100.00
56604;BME280;42486;47.478;19.036;2023-01-25T04:22:32;101780.69;;;0.05;100.00
56604;BME280;42486;47.478;19.036;2023-01-25T04:25:38;101784.12;;;0.02;100.00
56604;BME280;42486;47.478;19.036;2023-01-25T04:28:43;101782.41;;;0.04;100.00
56604;BME280;42486;47.478;19.036;2023-01-25T04:31:48;101785.75;;;0.17;100.00
56604;BME280;42486;47.478;19.036;2023-01-25T04:34:59;101784.81;;;0.26;100.00
56604;BME280;42486;47.478;19.036;2023-01-25T04:38:13;101798.44;;;0.40;100.00
56604;BME280;42486;47.478;19.036;2023-01-25T04:41:18;101791.47;;;0.51;100.00
56604;BME280;42486;47.478;19.036;2023-01-25T04:44:23;101788.81;;;0.60;100.00
56604;BME280;42486;47.478;19.036;2023-01-25T04:47:28;101788.69;;;0.73;100.00
56604;BME280;42486;47.478;19.036;2023-01-25T04:50:39;101787.78;;;0.78;100.00
56604;BME280;42486;47.478;19.036;2023-01-25T04:53:46;101784.28;;;0.84;100.00
56604;BME280;42486;47.478;19.036;2023-01-25T04:56:49;101797.97;;;0.87;100.00
56604;BME280;42486;47.478;19.036;2023-01-25T05:00:00;101783.31;;;0.96;100.00
56604;BME280;42486;47.478;19.036;2023-01-25T05:03:25;101789.31;;;0.95;100.00
56604;BME280;42486;47.478;19.036;2023-01-25T05:06:33;101793.56;;;1.00;100.00
56604;BME280;42486;47.478;19.036;2023-01-25T05:09:46;101797.97;;;0.89;100.00
56604;BME280;42486;47.478;19.036;2023-01-25T05:12:56;101803.09;;;0.91;100.00
56604;BME280;42486;47.478;19.036;2023-01-25T05:16:24;101793.66;;;0.90;100.00
56604;BME280;42486;47.478;19.036;2023-01-25T05:19:50;101804.88;;;0.82;100.00
56604;BME280;42486;47.478;19.036;2023-01-25T05:22:57;101799.72;;;0.82;100.00
56604;BME280;42486;47.478;19.036;2023-01-25T05:26:34;101807.50;;;0.76;100.00
56604;BME280;42486;47.478;19.036;2023-01-25T05:30:37;101800.69;;;0.74;100.00
56604;BME280;42486;47.478;19.036;2023-01-25T05:34:22;101798.06;;;0.78;100.00
56604;BME280;42486;47.478;19.036;2023-01-25T05:38:16;101806.69;;;0.71;100.00
56604;BME280;42486;47.478;19.036;2023-01-25T05:41:27;101807.50;;;0.78;100.00
56604;BME280;42486;47.478;19.036;2023-01-25T05:44:39;101797.16;;;0.84;100.00
56604;BME280;42486;47.478;19.036;2023-01-25T05:48:01;101799.72;;;0.84;100.00
56604;BME280;42486;47.478;19.036;2023-01-25T05:51:18;101793.78;;;0.80;100.00
56604;BME280;42486;47.478;19.036;2023-01-25T05:54:27;101790.25;;;0.87;100.00
56604;BME280;42486;47.478;19.036;2023-01-25T05:57:45;101792.78;;;0.92;100.00
56604;BME280;42486;47.478;19.036;2023-01-25T06:00:51;101799.69;;;0.88;100.00
56604;BME280;42486;47.478;19.036;2023-01-25T06:03:55;101798.84;;;0.86;100.00
56604;BME280;42486;47.478;19.036;2023-01-25T06:07:00;101798.00;;;0.84;100.00
56604;BME280;42486;47.478;19.036;2023-01-25T06:10:09;101804.00;;;0.85;100.00
56604;BME280;42486;47.478;19.036;2023-01-25T06:13:17;101801.53;;;0.76;100.00
56604;BME280;42486;47.478;19.036;2023-01-25T06:16:22;101799.06;;;0.63;100.00
56604;BME280;42486;47.478;19.036;2023-01-25T06:19:33;101808.53;;;0.61;100.00
56604;BME280;42486;47.478;19.036;2023-01-25T06:22:41;101812.66;;;0.76;100.00
56604;BME280;42486;47.478;19.036;2023-01-25T06:25:47;101819.44;;;0.86;100.00
56604;BME280;42486;47.478;19.036;2023-01-25T06:28:51;101819.38;;;0.90;100.00
56604;BME280;42486;47.478;19.036;2023-01-25T06:31:59;101829.63;;;0.96;100.00
56604;BME280;42486;47.478;19.036;2023-01-25T06:35:24;101829.59;;;0.97;100.00
56604;BME280;42486;47.478;19.036;2023-01-25T06:38:31;101827.00;;;1.00;100.00
56604;BME280;42486;47.478;19.036;2023-01-25T06:41:47;101832.03;;;1.13;100.00
56604;BME280;42486;47.478;19.036;2023-01-25T06:45:06;101822.50;;;1.21;100.00
56604;BME280;42486;47.478;19.036;2023-01-25T06:48:13;101827.66;;;1.19;100.00
56604;BME280;42486;47.478;19.036;2023-01-25T06:51:39;101840.47;;;1.25;100.00
56604;BME280;42486;47.478;19.036;2023-01-25T06:54:46;101830.22;;;1.19;100.00
56604;BME280;42486;47.478;19.036;2023-01-25T06:58:11;101829.47;;;1.13;100.00
56604;BME280;42486;47.478;19.036;2023-01-25T07:01:30;101825.03;;;1.22;100.00
56604;BME280;42486;47.478;19.036;2023-01-25T07:04:35;101823.19;;;1.35;100.00
56604;BME280;42486;47.478;19.036;2023-01-25T07:07:39;101829.09;;;1.46;100.00
56604;BME280;42486;47.478;19.036;2023-01-25T07:10:52;101823.09;;;1.44;100.00
56604;BME280;42486;47.478;19.036;2023-01-25T07:14:03;101831.59;;;1.51;100.00
56604;BME280;42486;47.478;19.036;2023-01-25T07:17:08;101831.62;;;1.49;100.00
56604;BME280;42486;47.478;19.036;2023-01-25T07:53:47;101823.53;;;1.79;100.00
56604;BME280;42486;47.478;19.036;2023-01-25T07:56:51;101827.19;;;1.59;100.00
56604;BME280;42486;47.478;19.036;2023-01-25T07:59:55;101827.94;;;1.69;100.00
56604;BME280;42486;47.478;19.036;2023-01-25T08:03:00;101825.06;;;1.92;100.00
56604;BME280;42486;47.478;19.036;2023-01-25T08:06:06;101833.78;;;1.80;100.00
56604;BME280;42486;47.478;19.036;2023-01-25T08:09:12;101831.28;;;1.75;100.00
56604;BME280;42486;47.478;19.036;2023-01-25T08:12:15;101826.69;;;1.97;100.00
56604;BME280;42486;47.478;19.036;2023-01-25T08:15:21;101836.22;;;1.92;100.00
56604;BME280;42486;47.478;19.036;2023-01-25T08:18:25;101829.31;;;1.94;100.00
56604;BME280;42486;47.478;19.036;2023-01-25T08:21:32;101831.50;;;2.20;100.00
56604;BME280;42486;47.478;19.036;2023-01-25T08:24:37;101829.19;;;2.05;100.00
56604;BME280;42486;47.478;19.036;2023-01-25T08:27:48;101827.97;;;2.28;100.00
56604;BME280;42486;47.478;19.036;2023-01-25T08:30:54;101823.53;;;2.37;100.00
56604;BME280;42486;47.478;19.036;2023-01-25T08:34:01;101828.75;;;2.31;100.00
56604;BME280;42486;47.478;19.036;2023-01-25T08:37:12;101817.44;;;2.41;100.00
56604;BME280;42486;47.478;19.036;2023-01-25T08:40:19;101818.12;;;2.53;100.00
56604;BME280;42486;47.478;19.036;2023-01-25T08:43:23;101823.91;;;2.67;100.00
56604;BME280;42486;47.478;19.036;2023-01-25T08:46:30;101804.88;;;2.71;100.00
56604;BME280;42486;47.478;19.036;2023-01-25T08:49:36;101819.19;;;2.89;100.00
56604;BME280;42486;47.478;19.036;2023-01-25T08:52:40;101816.34;;;3.06;100.00
56604;BME280;42486;47.478;19.036;2023-01-25T08:55:45;101816.34;;;3.04;100.00
56604;BME280;42486;47.478;19.036;2023-01-25T08:58:51;101806.91;;;3.03;100.00
56604;BME280;42486;47.478;19.036;2023-01-25T09:01:56;101816.53;;;2.95;100.00
56604;BME280;42486;47.478;19.036;2023-01-25T09:05:06;101816.53;;;2.94;100.00
56604;BME280;42486;47.478;19.036;2023-01-25T09:08:10;101813.97;;;2.94;100.00
56604;BME280;42486;47.478;19.036;2023-01-25T09:11:19;101803.72;;;2.89;100.00
56604;BME280;42486;47.478;19.036;2023-01-25T09:14:22;101810.69;;;2.85;100.00
56604;BME280;42486;47.478;19.036;2023-01-25T09:17:27;101808.88;;;2.89;100.00
56604;BME280;42486;47.478;19.036;2023-01-25T09:20:31;101807.25;;;2.83;100.00
56604;BME280;42486;47.478;19.036;2023-01-25T09:23:37;101807.34;;;2.79;100.00
56604;BME280;42486;47.478;19.036;2023-01-25T09:26:54;101802.16;;;2.80;100.00
56604;BME280;42486;47.478;19.036;2023-01-25T09:30:02;101798.75;;;2.78;100.00
56604;BME280;42486;47.478;19.036;2023-01-25T09:33:12;101797.97;;;2.73;100.00
56604;BME280;42486;47.478;19.036;2023-01-25T09:36:24;101797.19;;;2.70;100.00
56604;BME280;42486;47.478;19.036;2023-01-25T09:39:28;101800.56;;;2.73;100.00
56604;BME280;42486;47.478;19.036;2023-01-25T09:42:59;101800.66;;;2.69;100.00
56604;BME280;42486;47.478;19.036;2023-01-25T09:46:16;101806.75;;;2.64;100.00
56604;BME280;42486;47.478;19.036;2023-01-25T09:53:18;101789.50;;;2.67;100.00
56604;BME280;42486;47.478;19.036;2023-01-25T09:56:26;101787.75;;;2.69;100.00
56604;BME280;42486;47.478;19.036;2023-01-25T09:59:32;101784.09;;;2.80;100.00
56604;BME280;42486;47.478;19.036;2023-01-25T10:06:00;101767.56;;;2.91;100.00
56604;BME280;42486;47.478;19.036;2023-01-25T10:12:23;101748.63;;;3.35;100.00
56604;BME280;42486;47.478;19.036;2023-01-25T10:15:54;101752.50;;;3.53;100.00
56604;BME280;42486;47.478;19.036;2023-01-25T10:19:20;101749.16;;;3.49;100.00
56604;BME280;42486;47.478;19.036;2023-01-25T10:22:28;101739.72;;;3.48;100.00
56604;BME280;42486;47.478;19.036;2023-01-25T10:25:45;101738.69;;;3.56;100.00
56604;BME280;42486;47.478;19.036;2023-01-25T10:32:31;101730.47;;;3.38;100.00
56604;BME280;42486;47.478;19.036;2023-01-25T10:35:48;101727.88;;;3.38;100.00
56604;BME280;42486;47.478;19.036;2023-01-25T10:38:53;101727.66;;;3.47;100.00
56604;BME280;42486;47.478;19.036;2023-01-25T10:42:10;101725.47;;;3.29;100.00
56604;BME280;42486;47.478;19.036;2023-01-25T10:45:16;101719.31;;;3.36;100.00
56604;BME280;42486;47.478;19.036;2023-01-25T10:48:27;101711.50;;;3.38;100.00
56604;BME280;42486;47.478;19.036;2023-01-25T10:51:50;101707.31;;;3.34;100.00
56604;BME280;42486;47.478;19.036;2023-01-25T10:55:19;101711.41;;;3.42;100.00
56604;BME280;42486;47.478;19.036;2023-01-25T10:58:45;101703.97;;;3.28;100.00
56604;BME280;42486;47.478;19.036;2023-01-25T11:01:53;101707.97;;;3.43;100.00
56604;BME280;42486;47.478;19.036;2023-01-25T11:04:57;101703.81;;;3.36;100.00
56604;BME280;42486;47.478;19.036;2023-01-25T11:11:41;101689.59;;;3.17;100.00
56604;BME280;42486;47.478;19.036;2023-01-25T11:14:47;101678.28;;;3.22;100.00
56604;BME280;42486;47.478;19.036;2023-01-25T11:18:11;101679.31;;;3.14;100.00
56604;BME280;42486;47.478;19.036;2023-01-25T11:21:21;101676.69;;;3.17;100.00
56604;BME280;42486;47.478;19.036;2023-01-25T11:24:33;101673.28;;;3.15;100.00
56604;BME280;42486;47.478;19.036;2023-01-25T11:27:40;101666.31;;;3.18;100.00
56604;BME280;42486;47.478;19.036;2023-01-25T11:30:44;101654.69;;;3.38;100.00
56604;BME280;42486;47.478;19.036;2023-01-25T11:33:49;101656.16;;;3.48;100.00
56604;BME280;42486;47.478;19.036;2023-01-25T11:37:07;101650.50;;;3.32;100.00
56604;BME280;42486;47.478;19.036;2023-01-25T11:40:28;101641.56;;;3.47;100.00
56604;BME280;42486;47.478;19.036;2023-01-25T11:50:49;101618.12;;;3.55;100.00
56604;BME280;42486;47.478;19.036;2023-01-25T11:54:20;101612.59;;;3.34;100.00
56604;BME280;42486;47.478;19.036;2023-01-25T11:58:05;101602.66;;;3.53;100.00
56604;BME280;42486;47.478;19.036;2023-01-25T12:14:48;101571.75;;;3.84;100.00
56604;BME280;42486;47.478;19.036;2023-01-25T12:18:10;101566.81;;;3.75;100.00
56604;BME280;42486;47.478;19.036;2023-01-25T12:21:29;101570.06;;;3.83;100.00
56604;BME280;42486;47.478;19.036;2023-01-25T12:25:02;101558.81;;;3.84;100.00
56604;BME280;42486;47.478;19.036;2023-01-25T12:31:30;101559.06;;;3.75;100.00
56604;BME280;42486;47.478;19.036;2023-01-25T12:34:40;101551.63;;;3.61;99.82
56604;BME280;42486;47.478;19.036;2023-01-25T12:37:47;101554.41;;;3.53;100.00
56604;BME280;42486;47.478;19.036;2023-01-25T12:41:03;101551.78;;;3.57;100.00
56604;BME280;42486;47.478;19.036;2023-01-25T12:44:20;101551.78;;;3.57;100.00
56604;BME280;42486;47.478;19.036;2023-01-25T12:47:48;101549.78;;;3.66;100.00
56604;BME280;42486;47.478;19.036;2023-01-25T12:50:57;101541.03;;;3.38;100.00
56604;BME280;42486;47.478;19.036;2023-01-25T12:54:05;101539.78;;;3.54;100.00
56604;BME280;42486;47.478;19.036;2023-01-25T13:07:23;101527.25;;;3.39;100.00
56604;BME280;42486;47.478;19.036;2023-01-25T13:10:44;101527.25;;;3.39;100.00
56604;BME280;42486;47.478;19.036;2023-01-25T13:13:51;101520.53;;;3.31;100.00
56604;BME280;42486;47.478;19.036;2023-01-25T13:23:44;101505.84;;;3.68;100.00
56604;BME280;42486;47.478;19.036;2023-01-25T13:33:06;101502.16;;;3.77;100.00
56604;BME280;42486;47.478;19.036;2023-01-25T13:39:48;101504.72;;;3.78;100.00
56604;BME280;42486;47.478;19.036;2023-01-25T13:43:17;101498.13;;;3.97;100.00
56604;BME280;42486;47.478;19.036;2023-01-25T13:46:23;101495.84;;;3.87;100.00
56604;BME280;42486;47.478;19.036;2023-01-25T13:49:40;101493.25;;;3.88;100.00
56604;BME280;42486;47.478;19.036;2023-01-25T13:53:05;101493.28;;;3.85;100.00
56604;BME280;42486;47.478;19.036;2023-01-25T13:56:29;101491.31;;;3.95;100.00
56604;BME280;42486;47.478;19.036;2023-01-25T13:59:35;101492.69;;;4.07;100.00
56604;BME280;42486;47.478;19.036;2023-01-25T14:02:41;101490.72;;;3.85;100.00
56604;BME280;42486;47.478;19.036;2023-01-25T14:05:51;101486.97;;;3.95;100.00
56604;BME280;42486;47.478;19.036;2023-01-25T14:09:03;101484.25;;;4.02;100.00
56604;BME280;42486;47.478;19.036;2023-01-25T14:12:10;101475.38;;;4.10;100.00
56604;BME280;42486;47.478;19.036;2023-01-25T14:15:20;101474.56;;;4.08;98.51
56604;BME280;42486;47.478;19.036;2023-01-25T14:18:32;101478.56;;;3.89;99.08
56604;BME280;42486;47.478;19.036;2023-01-25T14:21:37;101475.97;;;3.89;98.89
56604;BME280;42486;47.478;19.036;2023-01-25T14:24:42;101475.19;;;3.85;99.53
56604;BME280;42486;47.478;19.036;2023-01-25T14:27:59;101480.53;;;3.79;99.88
56604;BME280;42486;47.478;19.036;2023-01-25T14:31:21;101476.41;;;3.72;100.00
56604;BME280;42486;47.478;19.036;2023-01-25T14:34:36;101472.56;;;3.88;100.00
56604;BME280;42486;47.478;19.036;2023-01-25T14:37:51;101473.13;;;3.67;100.00
56604;BME280;42486;47.478;19.036;2023-01-25T14:41:38;101475.84;;;3.62;100.00
56604;BME280;42486;47.478;19.036;2023-01-25T14:44:45;101474.09;;;3.63;100.00
56604;BME280;42486;47.478;19.036;2023-01-25T14:47:50;101473.13;;;3.67;100.00
56604;BME280;42486;47.478;19.036;2023-01-25T14:51:27;101466.19;;;3.69;100.00
56604;BME280;42486;47.478;19.036;2023-01-25T14:54:44;101464.37;;;3.72;100.00
56604;BME280;42486;47.478;19.036;2023-01-25T14:58:02;101462.88;;;3.64;100.00
56604;BME280;42486;47.478;19.036;2023-01-25T15:01:06;101470.63;;;3.64;100.00
56604;BME280;42486;47.478;19.036;2023-01-25T15:04:19;101461.94;;;3.66;100.00
56604;BME280;42486;47.478;19.036;2023-01-25T15:07:45;101462.66;;;3.71;100.00
56604;BME280;42486;47.478;19.036;2023-01-25T15:10:52;101453.87;;;3.46;100.00
56604;BME280;42486;47.478;19.036;2023-01-25T15:14:10;101459.91;;;3.45;100.00
56604;BME280;42486;47.478;19.036;2023-01-25T15:17:35;101454.09;;;3.38;100.00
56604;BME280;42486;47.478;19.036;2023-01-25T15:20:40;101455.69;;;3.42;100.00
56604;BME280;42486;47.478;19.036;2023-01-25T15:23:45;101449.50;;;3.48;100.00
56604;BME280;42486;47.478;19.036;2023-01-25T15:26:52;101455.22;;;3.26;100.00
56604;BME280;42486;47.478;19.036;2023-01-25T15:29:56;101455.19;;;3.28;100.00
56604;BME280;42486;47.478;19.036;2023-01-25T15:33:03;101455.78;;;3.38;100.00
56604;BME280;42486;47.478;19.036;2023-01-25T15:36:10;101452.56;;;3.29;100.00
56604;BME280;42486;47.478;19.036;2023-01-25T15:39:19;101452.50;;;3.33;100.00
56604;BME280;42486;47.478;19.036;2023-01-25T15:42:22;101449.78;;;3.37;100.00
56604;BME280;42486;47.478;19.036;2023-01-25T15:45:26;101451.72;;;3.29;100.00
56604;BME280;42486;47.478;19.036;2023-01-25T15:48:35;101456.78;;;3.34;100.00
56604;BME280;42486;47.478;19.036;2023-01-25T15:51:40;101454.31;;;3.29;100.00
56604;BME280;42486;47.478;19.036;2023-01-25T15:54:44;101452.72;;;3.23;100.00
56604;BME280;42486;47.478;19.036;2023-01-25T15:58:02;101447.63;;;3.22;100.00
56604;BME280;42486;47.478;19.036;2023-01-25T16:01:06;101453.00;;;3.13;100.00
56604;BME280;42486;47.478;19.036;2023-01-25T16:04:11;101454.25;;;2.96;100.00
56604;BME280;42486;47.478;19.036;2023-01-25T16:07:26;101445.50;;;3.03;100.00
56604;BME280;42486;47.478;19.036;2023-01-25T16:10:31;101436.78;;;3.07;100.00
56604;BME280;42486;47.478;19.036;2023-01-25T16:13:36;101436.59;;;3.14;100.00
56604;BME280;42486;47.478;19.036;2023-01-25T16:16:46;101434.19;;;3.07;100.00
56604;BME280;42486;47.478;19.036;2023-01-25T16:19:54;101435.28;;;2.99;100.00
56604;BME280;42486;47.478;19.036;2023-01-25T16:22:58;101431.03;;;2.96;100.00
56604;BME280;42486;47.478;19.036;2023-01-25T16:26:02;101431.94;;;2.95;100.00
56604;BME280;42486;47.478;19.036;2023-01-25T16:29:07;101431.69;;;3.04;100.00
56604;BME280;42486;47.478;19.036;2023-01-25T16:32:11;101433.69;;;2.93;100.00
56604;BME280;42486;47.478;19.036;2023-01-25T16:35:16;101434.03;;;2.79;100.00
56604;BME280;42486;47.478;19.036;2023-01-25T16:38:20;101438.03;;;2.91;100.00
56604;BME280;42486;47.478;19.036;2023-01-25T16:41:24;101435.69;;;2.82;100.00
56604;BME280;42486;47.478;19.036;2023-01-25T16:44:28;101423.44;;;2.90;100.00
56604;BME280;42486;47.478;19.036;2023-01-25T16:47:32;101426.78;;;2.95;100.00
56604;BME280;42486;47.478;19.036;2023-01-25T16:50:36;101430.94;;;2.99;100.00
56604;BME280;42486;47.478;19.036;2023-01-25T16:53:40;101432.78;;;2.94;100.00
56604;BME280;42486;47.478;19.036;2023-01-25T16:56:45;101422.78;;;2.82;100.00
56604;BME280;42486;47.478;19.036;2023-01-25T16:59:50;101427.69;;;2.93;100.00
56604;BME280;42486;47.478;19.036;2023-01-25T17:03:00;101432.97;;;2.86;100.00
56604;BME280;42486;47.478;19.036;2023-01-25T17:06:12;101430.47;;;2.83;100.00
56604;BME280;42486;47.478;19.036;2023-01-25T17:09:18;101417.84;;;2.71;100.00
56604;BME280;42486;47.478;19.036;2023-01-25T17:12:26;101421.19;;;2.76;100.00
56604;BME280;42486;47.478;19.036;2023-01-25T17:15:32;101421.00;;;2.84;100.00
56604;BME280;42486;47.478;19.036;2023-01-25T17:18:37;101413.97;;;2.91;100.00
56604;BME280;42486;47.478;19.036;2023-01-25T17:21:41;101418.16;;;2.95;100.00
56604;BME280;42486;47.478;19.036;2023-01-25T17:24:44;101411.47;;;2.87;100.00
56604;BME280;42486;47.478;19.036;2023-01-25T17:27:49;101409.75;;;2.86;100.00
56604;BME280;42486;47.478;19.036;2023-01-25T17:30:55;101401.16;;;2.86;100.00
56604;BME280;42486;47.478;19.036;2023-01-25T17:34:01;101402.19;;;2.80;100.00
56604;BME280;42486;47.478;19.036;2023-01-25T17:37:10;101404.78;;;2.79;100.00
56604;BME280;42486;47.478;19.036;2023-01-25T17:40:17;101401.41;;;2.77;100.00
56604;BME280;42486;47.478;19.036;2023-01-25T17:43:22;101397.81;;;2.82;100.00
56604;BME280;42486;47.478;19.036;2023-01-25T17:46:30;101384.84;;;2.85;100.00
56604;BME280;42486;47.478;19.036;2023-01-25T17:49:40;101384.78;;;2.87;100.00
56604;BME280;42486;47.478;19.036;2023-01-25T17:52:44;101384.09;;;2.82;100.00
56604;BME280;42486;47.478;19.036;2023-01-25T17:55:49;101387.53;;;2.81;100.00
56604;BME280;42486;47.478;19.036;2023-01-25T17:58:55;101377.19;;;2.82;100.00
56604;BME280;42486;47.478;19.036;2023-01-25T18:02:01;101376.22;;;2.86;100.00
56604;BME280;42486;47.478;19.036;2023-01-25T18:05:07;101372.69;;;2.89;100.00
56604;BME280;42486;47.478;19.036;2023-01-25T18:08:10;101366.81;;;2.84;100.00